Time;durP1;ratioP1;P1;durP2;ratioP2;P2;SDS_P1;SDS_P2;PMS_P1;PMS_P2;Temp;Humidity;BMP_temperature;BMP_pressure;BME280_temperature;BME280_humidity;BME280_pressure;Samples;Min_cycle;Max_cycle;Signal;HPM_P1;HPM_P2
2022/05/18 00:01:39;;;;;;;3.33;2.30;;;;;;;9.54;82.59;98680.41;5159667;27;20057;-42
2022/05/18 00:04:08;;;;;;;2.97;2.33;;;;;;;9.50;82.53;98682.31;5131689;27;20159;-41
2022/05/18 00:06:34;;;;;;;4.32;2.50;;;;;;;9.45;82.65;98686.88;5126127;28;20041;-41
2022/05/18 00:08:59;;;;;;;3.10;2.00;;;;;;;9.40;82.61;98685.41;5125723;27;20150;-43
2022/05/18 00:11:26;;;;;;;4.40;2.22;;;;;;;9.34;82.62;98687.38;5152686;27;20070;-42
2022/05/18 00:13:53;;;;;;;3.42;1.90;;;;;;;9.29;82.83;98686.72;5144313;27;20469;-40
2022/05/18 00:16:21;;;;;;;4.05;1.85;;;;;;;9.24;83.24;98683.50;5143969;27;20082;-42
2022/05/18 00:18:47;;;;;;;5.35;2.95;;;;;;;9.23;83.33;98696.53;5096554;28;20134;-43
2022/05/18 00:21:14;;;;;;;2.95;2.38;;;;;;;9.19;83.21;98693.25;5113787;28;20043;-42
2022/05/18 00:23:40;;;;;;;3.50;2.05;;;;;;;9.17;83.44;98695.06;5124550;27;20035;-41
2022/05/18 00:26:06;;;;;;;2.85;1.90;;;;;;;9.16;82.85;98702.94;5114113;27;20529;-41
2022/05/18 00:28:33;;;;;;;2.45;1.75;;;;;;;9.15;83.05;98703.81;5140268;27;20031;-41
2022/05/18 00:31:00;;;;;;;2.50;1.65;;;;;;;9.05;82.77;98692.19;5131591;28;20525;-41
2022/05/18 00:33:27;;;;;;;4.30;1.90;;;;;;;9.10;82.42;98704.03;5130993;27;20047;-41
2022/05/18 00:35:52;;;;;;;3.88;1.75;;;;;;;9.10;82.27;98713.56;5132374;27;20064;-41
2022/05/18 00:38:18;;;;;;;2.40;1.80;;;;;;;9.05;82.25;98710.31;5134284;27;20043;-40
2022/05/18 00:40:47;;;;;;;5.82;1.90;;;;;;;9.03;82.24;98719.91;5142854;27;20049;-41
2022/05/18 00:43:37;;;;;;;3.72;1.83;;;;;;;8.98;82.49;98720.13;5134747;27;20505;-40
2022/05/18 00:46:06;;;;;;;3.42;1.70;;;;;;;8.89;82.37;98708.41;5143461;27;20035;-41
2022/05/18 00:48:32;;;;;;;3.20;2.10;;;;;;;8.83;82.38;98698.28;5144936;27;20514;-41
2022/05/18 00:51:00;;;;;;;2.63;1.92;;;;;;;8.90;81.85;98725.63;5150597;27;20421;-40
2022/05/18 00:53:30;;;;;;;4.75;1.90;;;;;;;8.89;82.15;98725.69;5129094;28;20069;-40
2022/05/18 00:55:58;;;;;;;3.78;1.90;;;;;;;8.89;82.54;98733.47;5115874;28;20055;-40
2022/05/18 00:58:28;;;;;;;4.35;1.70;;;;;;;8.87;82.09;98735.28;5130281;28;20039;-41
2022/05/18 01:00:54;;;;;;;3.60;1.83;;;;;;;8.86;81.66;98736.19;5132303;27;20064;-41
2022/05/18 01:03:24;;;;;;;6.82;2.15;;;;;;;8.82;81.75;98735.47;5137810;27;20058;-41
2022/05/18 01:05:58;;;;;;;2.47;1.80;;;;;;;8.81;81.45;98730.34;5147441;27;20035;-41
2022/05/18 01:08:33;;;;;;;3.22;1.73;;;;;;;8.80;81.12;98733.84;5141549;27;20038;-41
2022/05/18 01:10:59;;;;;;;2.90;1.58;;;;;;;8.81;80.92;98738.97;5135262;27;20035;-41
2022/05/18 01:13:25;;;;;;;3.35;1.73;;;;;;;8.83;80.48;98744.09;5135255;27;20571;-41
2022/05/18 01:15:51;;;;;;;2.83;1.70;;;;;;;8.78;80.93;98728.75;5114034;27;20045;-41
2022/05/18 01:18:16;;;;;;;2.72;1.65;;;;;;;8.87;80.13;98738.72;5129040;27;20040;-41
2022/05/18 01:20:43;;;;;;;4.32;2.05;;;;;;;8.85;80.03;98732.75;5133267;27;20127;-40
2022/05/18 01:23:34;;;;;;;3.85;1.60;;;;;;;9.01;79.82;98747.63;5148662;27;20042;-41
2022/05/18 01:26:24;;;;;;;4.22;1.60;;;;;;;9.06;79.41;98758.66;5132587;27;20062;-40
2022/05/18 01:28:52;;;;;;;2.25;1.30;;;;;;;9.15;78.51;98760.88;5133673;27;20035;-40
2022/05/18 01:31:18;;;;;;;5.82;1.60;;;;;;;9.21;78.23;98760.63;5131472;27;20039;-40
2022/05/18 01:33:44;;;;;;;4.13;1.50;;;;;;;9.27;77.72;98768.09;5118824;27;20062;-41
2022/05/18 01:36:10;;;;;;;1.88;1.20;;;;;;;9.34;77.65;98762.59;5152902;27;20074;-41
2022/05/18 01:38:36;;;;;;;2.53;1.50;;;;;;;9.40;76.52;98768.41;5136181;27;20045;-42
2022/05/18 01:41:05;;;;;;;1.60;1.00;;;;;;;9.34;76.26;98753.97;5142518;27;20047;-40
2022/05/18 01:43:35;;;;;;;4.35;1.30;;;;;;;9.53;76.29;98772.97;5149835;27;20074;-41
2022/05/18 01:46:05;;;;;;;4.07;1.35;;;;;;;9.59;76.10;98784.84;5134335;27;20046;-40
2022/05/18 01:48:37;;;;;;;2.95;1.38;;;;;;;9.63;75.68;98771.66;5132529;27;20031;-41
2022/05/18 01:51:05;;;;;;;3.67;1.38;;;;;;;9.68;75.32;98789.63;5152735;27;20050;-40
2022/05/18 01:53:32;;;;;;;1.85;1.20;;;;;;;9.70;74.66;98788.66;5134535;27;20138;-41
2022/05/18 01:55:58;;;;;;;3.70;1.60;;;;;;;9.74;74.20;98785.00;5145716;27;20035;-40
2022/05/18 01:58:24;;;;;;;2.60;1.25;;;;;;;9.76;74.10;98795.31;5153093;27;20054;-40
2022/05/18 02:00:51;;;;;;;4.25;1.50;;;;;;;9.71;73.16;98794.69;5153563;27;20042;-41
2022/05/18 02:03:18;;;;;;;2.85;1.65;;;;;;;9.67;72.95;98812.16;5146212;27;20055;-41
2022/05/18 02:05:44;;;;;;;4.55;1.40;;;;;;;9.63;73.31;98802.78;5119526;27;20035;-41
2022/05/18 02:08:11;;;;;;;3.08;1.30;;;;;;;9.60;73.35;98804.69;5150625;27;20043;-41
2022/05/18 02:10:36;;;;;;;3.17;1.48;;;;;;;9.56;73.49;98811.78;5135141;27;20103;-41
2022/05/18 02:13:02;;;;;;;3.15;1.48;;;;;;;9.55;73.00;98814.44;5118078;27;20568;-40
2022/05/18 02:15:28;;;;;;;3.13;1.40;;;;;;;9.42;72.98;98797.75;5116772;27;20039;-40
2022/05/18 02:17:54;;;;;;;1.98;1.10;;;;;;;9.51;72.26;98818.09;5142940;27;20391;-40
2022/05/18 02:20:21;;;;;;;2.88;1.50;;;;;;;9.51;72.43;98815.47;5118775;27;20398;-41
2022/05/18 02:22:47;;;;;;;3.67;1.35;;;;;;;9.49;72.05;98812.09;5140418;27;20031;-41
2022/05/18 02:25:13;;;;;;;4.53;1.73;;;;;;;9.66;71.58;98827.78;5115384;27;20047;-41
2022/05/18 02:27:39;;;;;;;6.45;1.33;;;;;;;9.74;72.29;98826.53;5144594;27;20130;-41
2022/05/18 02:30:07;;;;;;;3.33;1.33;;;;;;;9.85;71.41;98830.38;5135680;27;20459;-41
2022/05/18 02:32:33;;;;;;;2.85;1.25;;;;;;;9.92;71.41;98839.59;5144305;27;20061;-41
2022/05/18 02:34:58;;;;;;;1.92;1.08;;;;;;;9.92;70.47;98835.25;5139334;27;20561;-42
2022/05/18 02:37:24;;;;;;;2.72;1.15;;;;;;;9.90;70.47;98839.66;5151796;27;20445;-42
2022/05/18 02:39:50;;;;;;;2.72;1.20;;;;;;;9.88;70.87;98845.84;5139155;27;20399;-41
2022/05/18 02:42:16;;;;;;;2.97;1.20;;;;;;;9.86;71.01;98852.84;5133225;27;20067;-41
2022/05/18 02:44:41;;;;;;;2.63;1.20;;;;;;;9.70;70.96;98826.72;5134214;27;20070;-40
2022/05/18 02:47:07;;;;;;;2.38;1.00;;;;;;;9.77;70.43;98836.78;5140338;27;20065;-42
2022/05/18 02:49:33;;;;;;;3.35;1.13;;;;;;;9.86;70.26;98848.50;5134673;27;20490;-41
2022/05/18 02:51:59;;;;;;;1.48;0.85;;;;;;;9.87;69.80;98855.38;5133079;27;20034;-41
2022/05/18 02:57:10;;;;;;;1.55;0.95;;;;;;;9.86;69.15;98860.63;5153656;27;20065;-40
2022/05/18 02:59:36;;;;;;;3.55;0.93;;;;;;;9.87;68.80;98864.94;5136368;27;20129;-41
2022/05/18 03:02:02;;;;;;;3.58;1.02;;;;;;;9.86;69.13;98865.81;5132704;27;20057;-41
2022/05/18 03:04:32;;;;;;;4.47;1.75;;;;;;;9.87;68.68;98870.13;5151389;27;20043;-40
2022/05/18 03:06:59;;;;;;;1.80;0.98;;;;;;;9.88;69.33;98870.06;5141455;27;20143;-42
2022/05/18 03:09:26;;;;;;;3.63;1.15;;;;;;;9.88;68.68;98869.22;5133037;27;20498;-40
2022/05/18 03:11:53;;;;;;;2.75;1.00;;;;;;;9.87;68.95;98870.13;5141981;27;20520;-41
2022/05/18 03:14:20;;;;;;;1.92;0.98;;;;;;;9.87;68.77;98875.31;5118830;27;20070;-40
2022/05/18 03:16:46;;;;;;;2.47;1.10;;;;;;;9.88;68.76;98874.41;5133708;27;20134;-40
2022/05/18 03:19:13;;;;;;;2.60;1.13;;;;;;;9.89;68.51;98879.50;5148989;27;20046;-41
2022/05/18 03:24:25;;;;;;;2.00;0.90;;;;;;;9.82;68.63;98867.72;5128595;27;20425;-40
2022/05/18 03:26:50;;;;;;;4.18;1.00;;;;;;;9.91;68.24;98887.22;5115042;27;20039;-41
2022/05/18 03:29:17;;;;;;;1.45;0.90;;;;;;;9.91;68.39;98892.44;5132376;27;20039;-41
2022/05/18 03:31:45;;;;;;;2.33;1.10;;;;;;;9.91;67.52;98887.22;5131964;27;20541;-41
2022/05/18 03:34:10;;;;;;;2.33;0.90;;;;;;;9.92;67.53;98888.94;5130409;27;20128;-41
2022/05/18 03:36:37;;;;;;;1.67;1.00;;;;;;;9.95;68.30;98894.81;5132569;27;20060;-40
2022/05/18 03:39:03;;;;;;;3.13;0.90;;;;;;;9.96;67.99;98899.09;5132488;27;20133;-41
2022/05/18 03:41:29;;;;;;;2.65;1.10;;;;;;;9.98;67.59;98899.88;5151303;27;20045;-40
2022/05/18 03:43:55;;;;;;;1.65;1.00;;;;;;;10.01;67.14;98906.69;5134158;27;20035;-41
2022/05/18 03:46:21;;;;;;;2.45;1.05;;;;;;;10.03;67.08;98902.28;5142031;27;20487;-40
2022/05/18 03:48:47;;;;;;;3.05;1.00;;;;;;;10.05;66.72;98901.28;5132511;27;20067;-41
2022/05/18 03:51:16;;;;;;;1.70;0.80;;;;;;;10.06;66.71;98905.56;5132061;27;20053;-42
2022/05/18 03:53:42;;;;;;;3.92;1.02;;;;;;;10.07;66.43;98903.81;5133536;27;20035;-42
2022/05/18 03:56:08;;;;;;;1.45;0.85;;;;;;;10.08;66.01;98913.31;5152460;27;20106;-41
2022/05/18 03:58:35;;;;;;;3.80;1.38;;;;;;;10.10;66.12;98903.69;5151049;27;20470;-40
2022/05/18 04:01:08;;;;;;;3.50;1.08;;;;;;;10.13;66.19;98914.78;5149273;27;20175;-41
2022/05/18 04:03:34;;;;;;;3.13;1.40;;;;;;;10.15;66.49;98917.31;5130336;27;20050;-40
2022/05/18 04:06:00;;;;;;;3.03;1.23;;;;;;;10.18;66.30;98919.81;5143270;27;20246;-41
2022/05/18 04:08:26;;;;;;;2.22;1.20;;;;;;;10.19;65.66;98921.50;5134029;27;20026;-40
2022/05/18 04:10:54;;;;;;;2.75;1.05;;;;;;;10.07;65.70;98907.25;5151528;27;20039;-40
2022/05/18 04:13:21;;;;;;;1.92;1.23;;;;;;;10.16;65.44;98916.41;5133557;27;20091;-43
2022/05/18 04:15:48;;;;;;;4.25;1.10;;;;;;;10.25;65.66;98935.97;5132573;27;20043;-41
2022/05/18 04:18:13;;;;;;;1.20;0.90;;;;;;;10.27;65.64;98931.53;5149341;27;20045;-40
2022/05/18 04:20:40;;;;;;;2.05;1.02;;;;;;;10.31;64.75;98930.50;5151869;27;20425;-40
2022/05/18 04:23:07;;;;;;;2.38;1.00;;;;;;;10.34;65.40;98938.13;5146309;27;20034;-41
2022/05/18 04:25:34;;;;;;;2.47;1.25;;;;;;;10.37;65.02;98935.38;5114786;28;20038;-41
2022/05/18 04:28:00;;;;;;;1.95;0.85;;;;;;;10.40;64.83;98943.91;5132869;27;20039;-41
2022/05/18 04:30:27;;;;;;;4.22;1.20;;;;;;;10.43;64.34;98942.91;5113813;28;20043;-41
2022/05/18 04:32:53;;;;;;;5.15;1.10;;;;;;;10.46;64.94;98948.84;5114081;28;20121;-40
2022/05/18 04:35:21;;;;;;;3.65;1.33;;;;;;;10.47;64.67;98947.88;5133231;27;20074;-41
2022/05/18 04:37:47;;;;;;;2.72;1.30;;;;;;;10.60;64.47;98955.97;5138048;27;20083;-42
2022/05/18 04:40:14;;;;;;;2.40;1.30;;;;;;;10.65;65.10;98953.16;5123854;27;20031;-40
2022/05/18 04:42:39;;;;;;;4.90;1.60;;;;;;;10.70;64.57;98953.78;5144965;27;20042;-41
2022/05/18 04:45:08;;;;;;;3.90;1.55;;;;;;;10.74;64.43;98963.13;5136609;27;20075;-41
2022/05/18 04:47:34;;;;;;;3.40;1.90;;;;;;;10.78;63.77;98960.31;5136861;27;20087;-40
2022/05/18 04:50:00;;;;;;;1.88;1.13;;;;;;;10.83;63.86;98965.31;5137324;27;20031;-41
2022/05/18 04:52:26;;;;;;;7.85;1.40;;;;;;;10.88;63.72;98963.34;5146640;27;20043;-40
2022/05/18 04:54:52;;;;;;;8.27;1.38;;;;;;;10.92;63.01;98967.50;5151787;27;20066;-41
2022/05/18 04:57:19;;;;;;;3.67;1.20;;;;;;;10.98;63.13;98972.41;5138439;27;20035;-41
2022/05/18 04:59:45;;;;;;;4.75;1.25;;;;;;;11.04;63.28;98977.31;5135487;27;20063;-40
2022/05/18 05:02:11;;;;;;;3.50;1.40;;;;;;;11.09;62.54;98983.16;5134060;27;20059;-42
2022/05/18 05:04:37;;;;;;;3.17;1.10;;;;;;;11.11;62.15;98975.25;5135444;27;20046;-41
2022/05/18 05:07:03;;;;;;;7.00;1.10;;;;;;;11.19;62.29;98975.75;5123582;27;20034;-41
2022/05/18 05:09:30;;;;;;;7.47;1.27;;;;;;;11.28;61.55;98978.75;5116743;27;20459;-41
2022/05/18 05:11:56;;;;;;;2.10;1.58;;;;;;;11.37;61.80;98982.66;5137442;27;20035;-41
2022/05/18 05:14:23;;;;;;;2.33;1.25;;;;;;;11.41;61.26;98972.00;5129689;27;20062;-42
2022/05/18 05:16:49;;;;;;;4.22;1.40;;;;;;;11.46;61.19;98971.81;5126146;27;20061;-40
2022/05/18 05:19:15;;;;;;;2.95;1.30;;;;;;;11.55;61.67;98983.50;5142194;27;20043;-41
2022/05/18 05:21:42;;;;;;;9.50;1.40;;;;;;;11.62;60.97;98982.31;5140865;27;20057;-42
2022/05/18 05:24:15;;;;;;;3.70;1.10;;;;;;;11.68;60.20;98985.41;5134539;27;20130;-42
2022/05/18 05:26:42;;;;;;;2.55;1.10;;;;;;;11.75;59.84;98986.00;5134658;27;20062;-42
2022/05/18 05:29:10;;;;;;;5.63;1.40;;;;;;;11.85;59.70;98982.00;5099119;27;20038;-42
2022/05/18 05:31:36;;;;;;;4.05;1.23;;;;;;;11.93;59.33;98982.47;5134353;27;20042;-42
2022/05/18 05:34:02;;;;;;;3.28;1.20;;;;;;;12.06;59.51;98985.28;5140477;27;20053;-42
2022/05/18 05:36:28;;;;;;;2.28;1.10;;;;;;;12.15;59.50;98982.19;5135831;27;20030;-42
2022/05/18 05:38:54;;;;;;;3.35;1.63;;;;;;;12.26;59.06;98988.53;5136079;27;20121;-41
2022/05/18 05:41:20;;;;;;;3.78;2.10;;;;;;;12.35;58.42;98999.41;5117379;27;20125;-42
2022/05/18 05:43:46;;;;;;;3.85;1.30;;;;;;;12.45;58.47;98987.59;5138611;27;20047;-42
2022/05/18 05:46:16;;;;;;;3.78;1.23;;;;;;;12.53;57.63;98995.81;5151322;27;20030;-41
2022/05/18 05:48:45;;;;;;;4.07;1.63;;;;;;;12.66;57.30;98991.66;5130988;27;20030;-41
2022/05/18 05:51:15;;;;;;;5.45;1.65;;;;;;;12.76;57.18;98992.84;5126145;27;20039;-41
2022/05/18 05:53:45;;;;;;;3.03;1.38;;;;;;;12.86;56.92;98996.63;5120544;27;20489;-42
2022/05/18 05:56:13;;;;;;;6.38;1.60;;;;;;;12.94;56.16;98994.44;5123582;27;20050;-42
2022/05/18 05:58:41;;;;;;;5.38;1.63;;;;;;;13.05;55.80;98999.06;5151690;27;20046;-41
2022/05/18 06:01:08;;;;;;;2.45;1.13;;;;;;;13.10;55.29;98999.63;5096357;27;20038;-42
2022/05/18 06:03:34;;;;;;;5.60;1.15;;;;;;;13.20;54.84;99006.06;5135509;27;20055;-44
2022/05/18 06:06:02;;;;;;;1.08;0.80;;;;;;;13.33;54.32;98996.63;5135020;27;20604;-42
2022/05/18 06:08:29;;;;;;;3.28;1.27;;;;;;;13.44;53.55;98999.47;5154502;27;20061;-42
2022/05/18 06:10:55;;;;;;;5.00;1.10;;;;;;;13.55;52.69;99010.13;5135505;27;20046;-40
2022/05/18 06:13:21;;;;;;;5.35;1.00;;;;;;;13.67;51.63;99005.13;5144521;27;20108;-40
2022/05/18 06:15:47;;;;;;;2.25;0.70;;;;;;;13.79;50.76;99007.91;5134502;27;20151;-41
2022/05/18 06:18:14;;;;;;;2.63;0.82;;;;;;;13.97;50.29;98998.97;5128650;27;20556;-41
2022/05/18 06:20:59;;;;;;;1.10;0.60;;;;;;;14.23;49.37;98994.81;5131427;27;20078;-43
2022/05/18 06:23:24;;;;;;;2.70;0.70;;;;;;;14.65;48.20;99004.47;5146705;27;20445;-42
2022/05/18 06:25:51;;;;;;;4.15;0.90;;;;;;;15.16;46.89;99002.97;5134632;27;20133;-43
2022/05/18 06:28:17;;;;;;;3.22;0.93;;;;;;;15.79;45.41;99010.25;5133136;27;20044;-42
2022/05/18 06:30:44;;;;;;;4.93;0.80;;;;;;;16.48;44.02;98996.75;5134662;27;20126;-42
2022/05/18 06:33:12;;;;;;;3.65;1.02;;;;;;;16.71;43.15;98987.28;5144103;27;20035;-42
2022/05/18 06:35:38;;;;;;;1.13;0.93;;;;;;;16.64;43.60;99011.47;5130823;27;20045;-42
2022/05/18 06:38:12;;;;;;;1.83;1.08;;;;;;;17.62;41.00;99017.47;5152024;27;20087;-43
2022/05/18 06:43:23;;;;;;;3.40;1.60;;;;;;;19.95;37.15;99012.25;5142692;27;20038;-42
2022/05/18 06:45:50;;;;;;;2.92;0.95;;;;;;;20.19;36.35;99019.00;5124265;27;20091;-41
2022/05/18 06:48:15;;;;;;;2.20;0.60;;;;;;;21.52;33.21;99014.38;5129478;27;20035;-42
2022/05/18 06:50:41;;;;;;;3.90;0.90;;;;;;;22.14;31.98;99023.69;5143406;27;20049;-41
2022/05/18 06:53:07;;;;;;;4.30;0.93;;;;;;;23.70;30.21;99021.09;5120655;27;20042;-41
2022/05/18 06:55:33;;;;;;;2.58;1.10;;;;;;;25.08;28.14;99022.88;5127952;27;20046;-41
2022/05/18 06:57:58;;;;;;;2.70;0.90;;;;;;;26.28;26.45;99019.75;5142942;27;20501;-42
2022/05/18 07:00:24;;;;;;;4.53;1.00;;;;;;;27.17;24.65;99020.34;5142067;27;20050;-41
2022/05/18 07:02:50;;;;;;;4.43;1.10;;;;;;;28.09;23.59;99021.25;5125062;27;20497;-42
2022/05/18 07:05:16;;;;;;;4.43;1.17;;;;;;;28.07;23.53;99017.94;5141750;27;20046;-41
2022/05/18 07:07:42;;;;;;;5.00;0.80;;;;;;;29.00;22.47;99026.38;5143064;27;20030;-42
2022/05/18 07:10:08;;;;;;;3.58;0.90;;;;;;;27.80;23.32;99025.50;5139206;27;20119;-41
2022/05/18 07:12:37;;;;;;;3.08;1.23;;;;;;;26.98;23.98;99024.28;5140420;27;20121;-43
2022/05/18 07:15:07;;;;;;;1.25;0.70;;;;;;;25.58;25.31;99032.69;5121055;27;20107;-40
2022/05/18 07:17:33;;;;;;;1.52;0.60;;;;;;;26.40;23.57;99027.25;5143155;27;20034;-41
2022/05/18 07:19:59;;;;;;;3.20;0.60;;;;;;;27.44;22.36;99015.53;5124749;27;20045;-41
2022/05/18 07:22:24;;;;;;;2.20;0.70;;;;;;;27.44;21.88;99027.03;5105592;27;20042;-41
2022/05/18 07:24:50;;;;;;;0.90;0.60;;;;;;;26.88;22.38;99022.81;5137272;27;20521;-41
2022/05/18 07:27:17;;;;;;;6.00;1.08;;;;;;;28.00;21.37;99023.16;5142862;27;20399;-41
2022/05/18 07:29:43;;;;;;;3.10;0.80;;;;;;;28.81;20.62;99024.25;5122641;27;20045;-41
2022/05/18 07:32:08;;;;;;;2.75;1.10;;;;;;;28.89;20.58;99026.84;5144249;27;20129;-40
2022/05/18 07:34:41;;;;;;;1.55;0.70;;;;;;;29.94;19.37;99027.28;5132669;27;20091;-40
2022/05/18 07:37:07;;;;;;;2.15;1.75;;;;;;;31.17;18.41;99027.53;5142784;27;20046;-41
2022/05/18 07:39:34;;;;;;;6.38;0.95;;;;;;;31.74;17.37;99030.63;5141061;27;20091;-41
2022/05/18 07:42:00;;;;;;;1.45;0.75;;;;;;;32.48;17.03;99032.34;5127802;27;20034;-41
2022/05/18 07:44:27;;;;;;;4.40;0.95;;;;;;;33.20;16.62;99026.81;5132122;27;20504;-42
2022/05/18 07:46:53;;;;;;;1.60;1.02;;;;;;;33.58;16.22;99034.91;5125930;27;20398;-40
2022/05/18 07:49:19;;;;;;;2.85;0.80;;;;;;;34.03;15.71;99036.50;5120958;27;20038;-42
2022/05/18 07:51:45;;;;;;;4.38;0.90;;;;;;;34.38;15.02;99027.97;5151037;27;20046;-41
2022/05/18 07:54:12;;;;;;;1.48;1.02;;;;;;;34.77;15.01;99030.28;5115526;27;20058;-42
2022/05/18 07:56:37;;;;;;;2.58;1.40;;;;;;;34.88;14.17;99030.59;5129153;27;20046;-41
2022/05/18 07:59:04;;;;;;;3.55;1.05;;;;;;;35.17;14.29;99054.16;5131254;27;20035;-40
2022/05/18 08:01:30;;;;;;;1.13;0.90;;;;;;;35.61;13.91;99048.41;5124524;27;20050;-41
2022/05/18 08:03:56;;;;;;;2.92;1.42;;;;;;;35.75;14.13;99046.34;5152371;27;20041;-40
2022/05/18 08:06:22;;;;;;;3.40;1.15;;;;;;;35.90;14.14;99052.19;5139805;27;20528;-41
2022/05/18 08:08:47;;;;;;;3.03;1.15;;;;;;;36.10;13.53;99046.44;5121875;27;20023;-42
2022/05/18 08:16:47;;;;;;;3.65;2.25;;;;;;;37.06;13.54;99043.28;5151032;27;20129;-43
2022/05/18 08:19:14;;;;;;;2.10;0.98;;;;;;;37.36;12.93;99048.56;5144002;27;20039;-43
2022/05/18 08:21:41;;;;;;;5.53;1.97;;;;;;;35.69;14.40;99052.69;5140708;27;20046;-43
2022/05/18 08:24:07;;;;;;;1.80;1.30;;;;;;;35.76;13.76;99053.41;5122141;27;20034;-43
2022/05/18 08:26:33;;;;;;;1.83;1.13;;;;;;;36.33;13.44;99051.09;5141919;27;20480;-43
2022/05/18 08:29:01;;;;;;;1.52;0.93;;;;;;;36.28;13.02;99038.25;5140103;27;20118;-42
2022/05/18 08:31:27;;;;;;;2.97;1.40;;;;;;;36.46;13.51;99048.16;5114460;28;20035;-42
2022/05/18 08:33:55;;;;;;;8.40;5.50;;;;;;;36.88;13.36;99057.84;5143583;27;20777;-42
2022/05/18 08:36:26;;;;;;;2.85;1.50;;;;;;;37.36;12.82;99061.28;5135966;27;20054;-42
2022/05/18 08:38:54;;;;;;;2.35;1.30;;;;;;;37.25;12.70;99046.72;5114023;28;20071;-39
2022/05/18 08:41:23;;;;;;;3.50;1.33;;;;;;;37.46;12.66;99048.75;5131868;27;20460;-42
2022/05/18 08:43:52;;;;;;;7.28;1.40;;;;;;;35.99;13.51;99044.53;5118061;27;20399;-41
2022/05/18 08:46:44;;;;;;;5.35;1.35;;;;;;;36.40;13.40;99066.19;5127788;27;20054;-41
2022/05/18 08:49:19;;;;;;;3.28;1.02;;;;;;;37.04;13.72;99055.44;5133184;27;20142;-41
2022/05/18 08:51:59;;;;;;;6.07;1.40;;;;;;;36.61;13.14;99050.41;5151762;27;20077;-41
2022/05/18 08:54:44;;;;;;;7.18;4.55;;;;;;;37.07;13.23;99052.25;5122093;28;20035;-43
2022/05/18 08:57:30;;;;;;;6.30;1.40;;;;;;;37.28;12.49;99047.03;5141918;27;20107;-42
2022/05/18 08:59:58;;;;;;;6.97;1.15;;;;;;;37.71;12.46;99048.44;5117692;28;20494;-42
2022/05/18 09:02:27;;;;;;;9.55;1.80;;;;;;;37.92;12.31;99053.16;5095820;28;20059;-42
2022/05/18 09:04:58;;;;;;;13.88;1.92;;;;;;;38.33;12.37;99053.84;5126632;27;20042;-43
2022/05/18 09:07:27;;;;;;;3.55;1.40;;;;;;;38.45;11.86;99046.50;5131055;28;20093;-41
2022/05/18 09:10:12;;;;;;;4.10;3.70;;;;;;;37.76;11.81;99043.09;5132166;27;20123;-42
2022/05/18 09:12:40;;;;;;;9.18;3.45;;;;;;;38.11;12.36;99048.34;5103700;27;20087;-41
2022/05/18 09:15:08;;;;;;;8.27;2.10;;;;;;;38.63;11.98;99050.84;5095810;28;20039;-42
2022/05/18 09:17:40;;;;;;;6.90;2.53;;;;;;;39.14;11.74;99049.66;5122909;27;20425;-42
2022/05/18 09:20:33;;;;;;;2.72;1.52;;;;;;;39.50;11.08;99056.34;5131689;27;20046;-41
2022/05/18 09:23:11;;;;;;;7.18;1.63;;;;;;;39.27;11.24;99046.53;5135886;27;20038;-42
2022/05/18 09:25:57;;;;;;;4.15;1.85;;;;;;;38.87;11.19;99047.66;5135721;27;20034;-41
2022/05/18 09:28:49;;;;;;;13.25;2.08;;;;;;;38.92;11.88;99044.19;5152334;27;20031;-40
2022/05/18 09:31:46;;;;;;;4.00;1.90;;;;;;;39.53;11.59;99043.03;5140639;27;20042;-42
2022/05/18 09:34:48;;;;;;;25.42;3.72;;;;;;;39.82;11.82;99045.56;5128394;27;20448;-42
2022/05/18 09:37:26;;;;;;;3.10;1.50;;;;;;;39.70;11.07;99048.41;5113120;27;20047;-41
2022/05/18 09:40:14;;;;;;;3.53;1.13;;;;;;;39.04;11.18;99042.19;5119549;27;20386;-42
2022/05/18 09:43:02;;;;;;;5.05;4.05;;;;;;;38.05;11.95;99042.00;5140898;27;20042;-41
2022/05/18 09:45:29;;;;;;;9.68;1.88;;;;;;;38.46;12.00;99031.84;5123122;27;20042;-41
2022/05/18 09:48:00;;;;;;;5.75;2.03;;;;;;;38.92;11.87;99030.59;5148497;27;20038;-41
2022/05/18 09:50:26;;;;;;;19.92;2.65;;;;;;;38.97;11.59;99030.66;5136340;27;20049;-41
2022/05/18 09:52:52;;;;;;;25.42;2.42;;;;;;;39.25;11.78;99026.94;5132500;27;20064;-40
2022/05/18 09:55:25;;;;;;;6.10;0.90;;;;;;;37.98;12.28;99025.03;5145188;27;20039;-41
2022/05/18 09:57:51;;;;;;;5.00;1.70;;;;;;;36.99;13.11;99033.66;5116434;27;20038;-42
2022/05/18 10:00:20;;;;;;;12.65;2.20;;;;;;;37.54;12.66;99042.97;5154519;27;20038;-43
2022/05/18 10:08:28;;;;;;;6.80;1.15;;;;;;;37.33;12.83;99028.16;5118185;27;20031;-42
2022/05/18 10:11:19;;;;;;;5.30;1.33;;;;;;;34.84;14.21;99022.13;5115776;27;20478;-41
2022/05/18 10:14:08;;;;;;;2.70;1.10;;;;;;;32.85;15.55;99020.09;5113200;27;20038;-41
2022/05/18 10:16:41;;;;;;;4.95;1.38;;;;;;;33.83;15.25;99035.81;5154018;27;20076;-40
2022/05/18 10:19:19;;;;;;;11.50;3.22;;;;;;;34.38;14.53;99033.34;5135506;27;20034;-40
2022/05/18 10:21:56;;;;;;;3.45;1.33;;;;;;;34.07;14.81;99031.53;5149034;27;20058;-40
2022/05/18 10:24:51;;;;;;;2.78;1.17;;;;;;;32.51;15.69;99019.28;5131432;27;20498;-43
2022/05/18 10:27:21;;;;;;;4.00;1.50;;;;;;;31.29;16.46;99029.47;5132151;27;20027;-40
2022/05/18 10:30:09;;;;;;;2.63;2.03;;;;;;;33.08;15.89;99021.22;5148025;27;20553;-41
2022/05/18 10:32:55;;;;;;;;;;;;;;;34.56;14.94;99035.25;5134391;27;20509;-41
2022/05/18 10:35:44;;;;;;;2.13;1.58;;;;;;;34.68;14.93;99028.06;5152245;27;20384;-40
2022/05/18 10:38:15;;;;;;;4.18;1.00;;;;;;;33.30;15.60;99023.66;5152381;27;20038;-41
2022/05/18 10:40:41;;;;;;;3.03;1.00;;;;;;;31.80;16.54;99012.84;5146896;27;20084;-41
2022/05/18 10:43:27;;;;;;;3.38;1.20;;;;;;;30.93;17.10;99018.13;5134659;27;20463;-42
2022/05/18 10:45:56;;;;;;;1.75;0.88;;;;;;;30.17;17.73;99026.03;5131314;27;20038;-41
2022/05/18 10:48:23;;;;;;;8.98;2.45;;;;;;;30.34;17.94;99023.06;5138305;27;20111;-42
2022/05/18 10:50:59;;;;;;;3.25;1.00;;;;;;;31.37;17.39;99026.56;5116459;27;20046;-42
2022/05/18 10:53:29;;;;;;;1.95;1.10;;;;;;;32.42;16.60;99012.47;5134990;27;20038;-42
2022/05/18 10:56:10;;;;;;;4.40;1.50;;;;;;;33.04;16.56;99027.25;5132776;27;20042;-41
2022/05/18 10:58:40;;;;;;;5.40;1.48;;;;;;;32.73;16.80;99023.41;5142249;27;20518;-41
2022/05/18 11:01:36;;;;;;;5.53;1.00;;;;;;;31.80;17.29;99010.16;5148760;27;20043;-42
2022/05/18 11:04:15;;;;;;;1.92;0.90;;;;;;;31.95;16.78;99014.31;5152224;27;20045;-41
2022/05/18 11:06:41;;;;;;;3.30;1.05;;;;;;;32.25;16.59;99022.00;5135283;27;20043;-43
2022/05/18 11:09:18;;;;;;;3.00;0.90;;;;;;;31.81;16.28;99020.72;5132664;27;20038;-41
2022/05/18 11:12:00;;;;;;;4.72;1.50;;;;;;;30.55;17.68;99026.56;5132304;27;20074;-41
2022/05/18 11:14:32;;;;;;;2.25;1.02;;;;;;;30.61;17.43;99020.41;5143265;27;20035;-42
2022/05/18 11:17:22;;;;;;;3.05;2.00;;;;;;;30.42;18.19;99018.38;5113400;27;20175;-41
2022/05/18 11:20:32;;;;;;;3.83;1.30;;;;;;;29.77;18.00;99018.63;5144180;27;20077;-43
2022/05/18 11:23:05;;;;;;;3.42;0.98;;;;;;;28.74;18.83;99013.47;5150566;27;20617;-42
2022/05/18 11:25:33;;;;;;;4.40;0.77;;;;;;;28.06;19.68;99019.75;5137634;27;20059;-42
2022/05/18 11:28:15;;;;;;;4.43;1.20;;;;;;;27.46;20.84;99018.84;5131942;27;20070;-43
2022/05/18 11:31:00;;;;;;;4.50;1.25;;;;;;;26.83;20.52;99019.78;5113841;27;20145;-42
2022/05/18 11:33:46;;;;;;;4.97;0.95;;;;;;;26.23;20.89;99011.44;5120099;27;20058;-41
2022/05/18 11:36:54;;;;;;;5.25;1.25;;;;;;;26.08;21.46;99024.56;5113476;27;20050;-42
2022/05/18 11:39:52;;;;;;;3.30;0.82;;;;;;;25.68;21.92;99018.25;5089792;27;20096;-42
2022/05/18 11:42:27;;;;;;;2.13;1.02;;;;;;;25.60;22.46;99020.03;5131140;27;20031;-42
2022/05/18 11:45:14;;;;;;;4.20;1.00;;;;;;;26.39;21.40;99022.06;5145137;27;20129;-44
2022/05/18 11:47:59;;;;;;;5.93;1.10;;;;;;;27.03;20.74;99017.56;5119144;27;20046;-42
2022/05/18 11:50:39;;;;;;;5.65;0.98;;;;;;;27.11;20.65;99021.03;5131796;27;20410;-41
2022/05/18 11:53:23;;;;;;;2.55;1.00;;;;;;;27.08;20.42;99026.72;5150382;27;20031;-42
2022/05/18 11:56:06;;;;;;;1.42;0.80;;;;;;;26.71;20.40;99022.00;5130517;27;20136;-42
2022/05/18 12:02:13;;;;;;;3.00;0.80;;;;;;;26.65;20.61;99021.84;5122650;27;20061;-41
2022/05/18 12:05:05;;;;;;;6.65;4.40;;;;;;;26.76;21.02;99024.16;5131630;27;20070;-42
2022/05/18 12:08:02;;;;;;;2.00;0.90;;;;;;;26.72;20.84;99028.16;5130798;27;20084;-43
2022/05/18 12:10:37;;;;;;;2.35;1.08;;;;;;;26.65;20.60;99025.34;5131389;28;20039;-41
2022/05/18 12:13:32;;;;;;;2.20;0.80;;;;;;;26.06;20.91;99029.25;5137587;27;20041;-40
2022/05/18 12:16:07;;;;;;;1.73;0.80;;;;;;;25.66;21.23;99030.88;5149241;27;20049;-41